KDCU/DCU METAR and TAF weather

Enter ICAO airport designator
Station Type Date Time Source
KDCU METAR 2020/09/19 01:53 UTC NOAA

KDCU 190153Z AUTO 01007KT 10SM CLR 19/14 A3012 RMK AO2 SLP195 T01940139


Station Type Date Time Source
KDCU Decoded METAR 2020/09/19 01:53 UTC NOAA

PRYOR FIELD, AL, United States (KDCU) 34-39N 086-57W 176M
Sep 18, 2020 - 09:53 PM EDT / 2020.09.19 0153 UTC
Wind: from the N (010 degrees) at 8 MPH (7 KT):0
Visibility: 10 mile(s):0
Sky conditions: clear
Temperature: 66.9 F (19.4 C)
Dew Point: 57.0 F (13.9 C)
Relative Humidity: 70%
Pressure (altimeter): 30.12 in. Hg (1019 hPa)
ob: KDCU 190153Z AUTO 01007KT 10SM CLR 19/14 A3012 RMK AO2 SLP195 T01940139
cycle: 2

Station Type Date Time Source
KDCU TAF UTC NOAA

Error!

Example: see airport list